Terminal Aerodrome Forecast
Issued by NWS

Home | Current Version | Previous Version | Text Only | Print | Product List | Glossary On
Versions: 1 2 3 4 5 6 7 8 9 10 11 12 13 14 15
000
FTUS43 KJKL 250533
TAFSME
TAF
KSME 250533Z 2506/2606 VRB05KT P6SM BKN250
     FM250800 VRB03KT P6SM BKN050 BKN100 WS015/21035KT
     FM251400 23007G15KT P6SM BKN050
     FM260000 VRB05KT P6SM SCT050=

USA.gov is the U.S. government's official web portal to all federal, state and local government web resources and services.